sensor_id;sensor_type;location;lat;lon;timestamp;temperature;humidity
15455;DHT22;21057;51.024;7.540;2023-07-29T00:01:58;20.20;99.90
15455;DHT22;21057;51.024;7.540;2023-07-29T00:04:25;20.30;99.90
15455;DHT22;21057;51.024;7.540;2023-07-29T00:06:52;20.40;99.90
15455;DHT22;21057;51.024;7.540;2023-07-29T00:09:19;20.30;99.90
15455;DHT22;21057;51.024;7.540;2023-07-29T00:11:47;20.30;99.90
15455;DHT22;21057;51.024;7.540;2023-07-29T00:14:14;20.30;99.90
15455;DHT22;21057;51.024;7.540;2023-07-29T00:16:40;20.20;99.90
15455;DHT22;21057;51.024;7.540;2023-07-29T00:19:08;20.30;99.90
15455;DHT22;21057;51.024;7.540;2023-07-29T00:21:35;20.30;99.90
15455;DHT22;21057;51.024;7.540;2023-07-29T00:24:02;20.30;99.90
15455;DHT22;21057;51.024;7.540;2023-07-29T00:26:28;20.30;99.90
15455;DHT22;21057;51.024;7.540;2023-07-29T00:28:57;20.40;99.90
15455;DHT22;21057;51.024;7.540;2023-07-29T00:31:24;20.40;99.90
15455;DHT22;21057;51.024;7.540;2023-07-29T00:33:51;20.30;99.90
15455;DHT22;21057;51.024;7.540;2023-07-29T00:36:18;20.30;99.90
15455;DHT22;21057;51.024;7.540;2023-07-29T00:38:45;20.40;99.90
15455;DHT22;21057;51.024;7.540;2023-07-29T00:41:14;20.50;99.90
15455;DHT22;21057;51.024;7.540;2023-07-29T00:43:42;20.40;99.90
15455;DHT22;21057;51.024;7.540;2023-07-29T00:46:11;20.30;99.90
15455;DHT22;21057;51.024;7.540;2023-07-29T00:48:38;20.20;99.90
15455;DHT22;21057;51.024;7.540;2023-07-29T00:51:05;20.20;99.90
15455;DHT22;21057;51.024;7.540;2023-07-29T00:53:32;20.10;99.90
15455;DHT22;21057;51.024;7.540;2023-07-29T00:55:59;20.20;99.90
15455;DHT22;21057;51.024;7.540;2023-07-29T00:58:26;20.20;99.90
15455;DHT22;21057;51.024;7.540;2023-07-29T01:00:54;20.30;99.90
15455;DHT22;21057;51.024;7.540;2023-07-29T01:03:23;20.40;99.90
15455;DHT22;21057;51.024;7.540;2023-07-29T01:05:59;20.50;99.90
15455;DHT22;21057;51.024;7.540;2023-07-29T01:08:33;20.50;99.90
15455;DHT22;21057;51.024;7.540;2023-07-29T01:11:07;20.40;99.90
15455;DHT22;21057;51.024;7.540;2023-07-29T01:13:44;20.40;99.90
15455;DHT22;21057;51.024;7.540;2023-07-29T01:16:17;20.30;99.90
15455;DHT22;21057;51.024;7.540;2023-07-29T01:18:51;20.50;99.90
15455;DHT22;21057;51.024;7.540;2023-07-29T01:21:19;20.30;99.90
15455;DHT22;21057;51.024;7.540;2023-07-29T01:23:52;20.30;99.90
15455;DHT22;21057;51.024;7.540;2023-07-29T01:26:19;20.20;99.90
15455;DHT22;21057;51.024;7.540;2023-07-29T01:28:45;20.20;99.90
15455;DHT22;21057;51.024;7.540;2023-07-29T01:31:18;20.10;99.90
15455;DHT22;21057;51.024;7.540;2023-07-29T01:33:51;20.20;99.90
15455;DHT22;21057;51.024;7.540;2023-07-29T01:36:22;20.10;99.90
15455;DHT22;21057;51.024;7.540;2023-07-29T01:38:51;20.10;99.90
15455;DHT22;21057;51.024;7.540;2023-07-29T01:41:20;20.10;99.90
15455;DHT22;21057;51.024;7.540;2023-07-29T01:43:48;20.20;99.90
15455;DHT22;21057;51.024;7.540;2023-07-29T01:46:15;20.30;99.90
15455;DHT22;21057;51.024;7.540;2023-07-29T01:48:42;20.20;99.90
15455;DHT22;21057;51.024;7.540;2023-07-29T01:51:11;20.20;99.90
15455;DHT22;21057;51.024;7.540;2023-07-29T01:53:38;20.30;99.90
15455;DHT22;21057;51.024;7.540;2023-07-29T01:56:06;20.20;99.90
15455;DHT22;21057;51.024;7.540;2023-07-29T01:58:33;20.20;99.90
15455;DHT22;21057;51.024;7.540;2023-07-29T02:01:00;20.20;99.90
15455;DHT22;21057;51.024;7.540;2023-07-29T02:03:27;20.20;99.90
15455;DHT22;21057;51.024;7.540;2023-07-29T02:05:53;20.20;99.90
15455;DHT22;21057;51.024;7.540;2023-07-29T02:08:20;20.20;99.90
15455;DHT22;21057;51.024;7.540;2023-07-29T02:10:47;20.20;99.90
15455;DHT22;21057;51.024;7.540;2023-07-29T02:13:15;20.20;99.90
15455;DHT22;21057;51.024;7.540;2023-07-29T02:15:42;20.20;99.90
15455;DHT22;21057;51.024;7.540;2023-07-29T02:18:09;20.30;99.90
15455;DHT22;21057;51.024;7.540;2023-07-29T02:20:36;20.30;99.90
15455;DHT22;21057;51.024;7.540;2023-07-29T02:23:03;20.30;99.90
15455;DHT22;21057;51.024;7.540;2023-07-29T02:25:30;20.40;99.90
15455;DHT22;21057;51.024;7.540;2023-07-29T02:27:57;20.40;99.90
15455;DHT22;21057;51.024;7.540;2023-07-29T02:30:25;20.20;99.90
15455;DHT22;21057;51.024;7.540;2023-07-29T02:32:52;20.10;99.90
15455;DHT22;21057;51.024;7.540;2023-07-29T02:35:19;20.10;99.90
15455;DHT22;21057;51.024;7.540;2023-07-29T02:37:45;20.10;99.90
15455;DHT22;21057;51.024;7.540;2023-07-29T02:40:12;20.10;99.90
15455;DHT22;21057;51.024;7.540;2023-07-29T02:42:39;20.10;99.90
15455;DHT22;21057;51.024;7.540;2023-07-29T02:45:07;20.20;99.90
15455;DHT22;21057;51.024;7.540;2023-07-29T02:47:37;20.40;99.90
15455;DHT22;21057;51.024;7.540;2023-07-29T02:50:05;20.20;99.90
15455;DHT22;21057;51.024;7.540;2023-07-29T02:52:32;20.30;99.90
15455;DHT22;21057;51.024;7.540;2023-07-29T02:54:58;20.30;99.90
15455;DHT22;21057;51.024;7.540;2023-07-29T02:57:25;20.10;99.90
15455;DHT22;21057;51.024;7.540;2023-07-29T02:59:52;20.40;99.90
15455;DHT22;21057;51.024;7.540;2023-07-29T03:02:19;20.40;99.90
15455;DHT22;21057;51.024;7.540;2023-07-29T03:04:49;20.40;99.90
15455;DHT22;21057;51.024;7.540;2023-07-29T03:07:16;20.30;99.90
15455;DHT22;21057;51.024;7.540;2023-07-29T03:09:42;20.20;99.90
15455;DHT22;21057;51.024;7.540;2023-07-29T03:12:10;20.40;99.90
15455;DHT22;21057;51.024;7.540;2023-07-29T03:14:37;20.30;99.90
15455;DHT22;21057;51.024;7.540;2023-07-29T03:17:04;20.20;99.90
15455;DHT22;21057;51.024;7.540;2023-07-29T03:19:31;20.10;99.90
15455;DHT22;21057;51.024;7.540;2023-07-29T03:21:59;20.10;99.90
15455;DHT22;21057;51.024;7.540;2023-07-29T03:24:26;20.20;99.90
15455;DHT22;21057;51.024;7.540;2023-07-29T03:26:54;20.00;99.90
15455;DHT22;21057;51.024;7.540;2023-07-29T03:29:21;19.90;99.90
15455;DHT22;21057;51.024;7.540;2023-07-29T03:31:48;20.00;99.90
15455;DHT22;21057;51.024;7.540;2023-07-29T03:34:15;19.90;99.90
15455;DHT22;21057;51.024;7.540;2023-07-29T03:36:41;19.90;99.90
15455;DHT22;21057;51.024;7.540;2023-07-29T03:39:10;19.90;99.90
15455;DHT22;21057;51.024;7.540;2023-07-29T03:41:37;20.00;99.90
15455;DHT22;21057;51.024;7.540;2023-07-29T03:44:04;20.10;99.90
15455;DHT22;21057;51.024;7.540;2023-07-29T03:46:31;20.10;99.90
15455;DHT22;21057;51.024;7.540;2023-07-29T03:48:58;20.10;99.90
15455;DHT22;21057;51.024;7.540;2023-07-29T03:51:25;20.10;99.90
15455;DHT22;21057;51.024;7.540;2023-07-29T03:53:51;20.00;99.90
15455;DHT22;21057;51.024;7.540;2023-07-29T03:56:19;20.00;99.90
15455;DHT22;21057;51.024;7.540;2023-07-29T03:58:46;20.00;99.90
15455;DHT22;21057;51.024;7.540;2023-07-29T04:01:13;20.00;99.90
15455;DHT22;21057;51.024;7.540;2023-07-29T04:03:40;20.00;99.90
15455;DHT22;21057;51.024;7.540;2023-07-29T04:06:07;20.10;99.90
15455;DHT22;21057;51.024;7.540;2023-07-29T04:08:34;20.10;99.90
15455;DHT22;21057;51.024;7.540;2023-07-29T04:11:01;20.00;99.90
15455;DHT22;21057;51.024;7.540;2023-07-29T04:13:29;20.10;99.90
15455;DHT22;21057;51.024;7.540;2023-07-29T04:15:56;20.10;99.90
15455;DHT22;21057;51.024;7.540;2023-07-29T04:18:22;20.10;99.90
15455;DHT22;21057;51.024;7.540;2023-07-29T04:20:49;19.90;99.90
15455;DHT22;21057;51.024;7.540;2023-07-29T04:23:16;19.70;99.90
15455;DHT22;21057;51.024;7.540;2023-07-29T04:25:43;19.90;99.90
15455;DHT22;21057;51.024;7.540;2023-07-29T04:28:10;19.90;99.90
15455;DHT22;21057;51.024;7.540;2023-07-29T04:30:38;20.00;99.90
15455;DHT22;21057;51.024;7.540;2023-07-29T04:33:05;20.00;99.90
15455;DHT22;21057;51.024;7.540;2023-07-29T04:35:31;19.90;99.90
15455;DHT22;21057;51.024;7.540;2023-07-29T04:37:58;19.60;99.90
15455;DHT22;21057;51.024;7.540;2023-07-29T04:40:25;19.60;99.90
15455;DHT22;21057;51.024;7.540;2023-07-29T04:42:52;19.80;99.90
15455;DHT22;21057;51.024;7.540;2023-07-29T04:45:18;19.90;99.90
15455;DHT22;21057;51.024;7.540;2023-07-29T04:47:47;20.00;99.90
15455;DHT22;21057;51.024;7.540;2023-07-29T04:50:13;20.10;99.90
15455;DHT22;21057;51.024;7.540;2023-07-29T04:52:40;20.10;99.90
15455;DHT22;21057;51.024;7.540;2023-07-29T04:55:07;20.00;99.90
15455;DHT22;21057;51.024;7.540;2023-07-29T04:57:34;19.90;99.90
15455;DHT22;21057;51.024;7.540;2023-07-29T05:00:02;20.00;99.90
15455;DHT22;21057;51.024;7.540;2023-07-29T05:02:29;20.10;99.90
15455;DHT22;21057;51.024;7.540;2023-07-29T05:04:57;20.10;99.90
15455;DHT22;21057;51.024;7.540;2023-07-29T05:07:24;20.10;99.90
15455;DHT22;21057;51.024;7.540;2023-07-29T05:09:51;20.20;99.90
15455;DHT22;21057;51.024;7.540;2023-07-29T05:12:17;20.10;99.90
15455;DHT22;21057;51.024;7.540;2023-07-29T05:14:44;20.30;99.90
15455;DHT22;21057;51.024;7.540;2023-07-29T05:17:11;20.30;99.90
15455;DHT22;21057;51.024;7.540;2023-07-29T05:19:38;20.20;99.90
15455;DHT22;21057;51.024;7.540;2023-07-29T05:22:06;20.30;99.90
15455;DHT22;21057;51.024;7.540;2023-07-29T05:24:33;20.20;99.90
15455;DHT22;21057;51.024;7.540;2023-07-29T05:26:59;20.20;99.90
15455;DHT22;21057;51.024;7.540;2023-07-29T05:29:26;20.10;99.90
15455;DHT22;21057;51.024;7.540;2023-07-29T05:31:53;20.10;99.90
15455;DHT22;21057;51.024;7.540;2023-07-29T05:34:20;19.90;99.90
15455;DHT22;21057;51.024;7.540;2023-07-29T05:36:47;19.70;99.90
15455;DHT22;21057;51.024;7.540;2023-07-29T05:39:15;19.70;99.90
15455;DHT22;21057;51.024;7.540;2023-07-29T05:41:42;19.80;99.90
15455;DHT22;21057;51.024;7.540;2023-07-29T05:44:08;19.80;99.90
15455;DHT22;21057;51.024;7.540;2023-07-29T05:46:35;19.70;99.90
15455;DHT22;21057;51.024;7.540;2023-07-29T05:49:02;19.70;99.90
15455;DHT22;21057;51.024;7.540;2023-07-29T05:51:29;19.60;99.90
15455;DHT22;21057;51.024;7.540;2023-07-29T05:53:55;19.60;99.90
15455;DHT22;21057;51.024;7.540;2023-07-29T05:56:24;19.70;99.90
15455;DHT22;21057;51.024;7.540;2023-07-29T05:58:50;19.70;99.90
15455;DHT22;21057;51.024;7.540;2023-07-29T06:01:18;19.80;99.90
15455;DHT22;21057;51.024;7.540;2023-07-29T06:03:46;19.90;99.90
15455;DHT22;21057;51.024;7.540;2023-07-29T06:06:13;19.90;99.90
15455;DHT22;21057;51.024;7.540;2023-07-29T06:08:40;19.80;99.90
15455;DHT22;21057;51.024;7.540;2023-07-29T06:11:07;19.60;99.90
15455;DHT22;21057;51.024;7.540;2023-07-29T06:13:35;19.70;99.90
15455;DHT22;21057;51.024;7.540;2023-07-29T06:16:02;19.80;99.90
15455;DHT22;21057;51.024;7.540;2023-07-29T06:18:29;20.10;99.90
15455;DHT22;21057;51.024;7.540;2023-07-29T06:20:56;20.10;99.90
15455;DHT22;21057;51.024;7.540;2023-07-29T06:23:23;20.00;99.90
15455;DHT22;21057;51.024;7.540;2023-07-29T06:25:50;20.20;99.90
15455;DHT22;21057;51.024;7.540;2023-07-29T06:28:17;20.10;99.90
15455;DHT22;21057;51.024;7.540;2023-07-29T06:30:45;20.00;99.90
15455;DHT22;21057;51.024;7.540;2023-07-29T06:33:12;20.10;99.90
15455;DHT22;21057;51.024;7.540;2023-07-29T06:35:38;20.10;99.90
15455;DHT22;21057;51.024;7.540;2023-07-29T06:38:05;20.00;99.90
15455;DHT22;21057;51.024;7.540;2023-07-29T06:40:32;20.00;99.90
15455;DHT22;21057;51.024;7.540;2023-07-29T06:42:59;20.10;99.90
15455;DHT22;21057;51.024;7.540;2023-07-29T06:45:26;20.00;99.90
15455;DHT22;21057;51.024;7.540;2023-07-29T06:47:54;19.90;99.90
15455;DHT22;21057;51.024;7.540;2023-07-29T06:50:21;19.90;99.90
15455;DHT22;21057;51.024;7.540;2023-07-29T06:52:48;20.00;99.90
15455;DHT22;21057;51.024;7.540;2023-07-29T06:55:15;20.00;99.90
15455;DHT22;21057;51.024;7.540;2023-07-29T06:57:42;19.90;99.90
15455;DHT22;21057;51.024;7.540;2023-07-29T07:00:09;19.90;99.90
15455;DHT22;21057;51.024;7.540;2023-07-29T07:02:36;19.90;99.90
15455;DHT22;21057;51.024;7.540;2023-07-29T07:05:05;19.90;99.90
15455;DHT22;21057;51.024;7.540;2023-07-29T07:07:32;19.90;99.90
15455;DHT22;21057;51.024;7.540;2023-07-29T07:09:59;19.90;99.90
15455;DHT22;21057;51.024;7.540;2023-07-29T07:12:26;19.70;99.90
15455;DHT22;21057;51.024;7.540;2023-07-29T07:14:52;19.80;99.90
15455;DHT22;21057;51.024;7.540;2023-07-29T07:17:19;19.70;99.90
15455;DHT22;21057;51.024;7.540;2023-07-29T07:19:46;19.70;99.90
15455;DHT22;21057;51.024;7.540;2023-07-29T07:22:14;19.60;99.90
15455;DHT22;21057;51.024;7.540;2023-07-29T07:24:41;19.70;99.90
15455;DHT22;21057;51.024;7.540;2023-07-29T07:27:08;19.80;99.90
15455;DHT22;21057;51.024;7.540;2023-07-29T07:29:35;20.00;99.90
15455;DHT22;21057;51.024;7.540;2023-07-29T07:32:02;19.90;99.90
15455;DHT22;21057;51.024;7.540;2023-07-29T07:34:28;20.00;99.90
15455;DHT22;21057;51.024;7.540;2023-07-29T07:36:55;20.10;99.90
15455;DHT22;21057;51.024;7.540;2023-07-29T07:39:23;20.30;99.90
15455;DHT22;21057;51.024;7.540;2023-07-29T07:41:50;20.20;99.90
15455;DHT22;21057;51.024;7.540;2023-07-29T07:44:17;20.10;99.90
15455;DHT22;21057;51.024;7.540;2023-07-29T07:46:45;20.30;99.90
15455;DHT22;21057;51.024;7.540;2023-07-29T07:49:12;20.50;99.90
15455;DHT22;21057;51.024;7.540;2023-07-29T07:51:39;20.70;99.90
15455;DHT22;21057;51.024;7.540;2023-07-29T07:54:06;20.60;99.90
15455;DHT22;21057;51.024;7.540;2023-07-29T07:56:34;20.70;99.90
15455;DHT22;21057;51.024;7.540;2023-07-29T07:59:01;20.70;99.90
15455;DHT22;21057;51.024;7.540;2023-07-29T08:01:27;20.80;99.90
15455;DHT22;21057;51.024;7.540;2023-07-29T08:03:54;20.90;99.90
15455;DHT22;21057;51.024;7.540;2023-07-29T08:06:21;20.90;99.90
15455;DHT22;21057;51.024;7.540;2023-07-29T08:08:48;20.60;99.90
15455;DHT22;21057;51.024;7.540;2023-07-29T08:11:14;20.50;99.90
15455;DHT22;21057;51.024;7.540;2023-07-29T08:13:43;20.30;99.90
15455;DHT22;21057;51.024;7.540;2023-07-29T08:16:10;20.00;99.90
15455;DHT22;21057;51.024;7.540;2023-07-29T08:18:36;19.90;99.90
15455;DHT22;21057;51.024;7.540;2023-07-29T08:21:03;19.70;99.90
15455;DHT22;21057;51.024;7.540;2023-07-29T08:23:31;20.00;99.90
15455;DHT22;21057;51.024;7.540;2023-07-29T08:26:00;20.30;99.90
15455;DHT22;21057;51.024;7.540;2023-07-29T08:28:27;20.40;99.90
15455;DHT22;21057;51.024;7.540;2023-07-29T08:30:56;20.60;99.90
15455;DHT22;21057;51.024;7.540;2023-07-29T08:33:23;20.60;99.90
15455;DHT22;21057;51.024;7.540;2023-07-29T08:35:50;20.60;99.90
15455;DHT22;21057;51.024;7.540;2023-07-29T08:38:17;20.50;99.90
15455;DHT22;21057;51.024;7.540;2023-07-29T08:40:49;20.60;99.90
15455;DHT22;21057;51.024;7.540;2023-07-29T08:43:19;20.70;99.90
15455;DHT22;21057;51.024;7.540;2023-07-29T08:45:46;20.90;99.90
15455;DHT22;21057;51.024;7.540;2023-07-29T08:48:15;21.10;99.90
15455;DHT22;21057;51.024;7.540;2023-07-29T08:50:46;21.60;99.90
15455;DHT22;21057;51.024;7.540;2023-07-29T08:53:14;21.90;99.90
15455;DHT22;21057;51.024;7.540;2023-07-29T08:55:41;22.00;99.90
15455;DHT22;21057;51.024;7.540;2023-07-29T08:58:08;22.10;99.90
15455;DHT22;21057;51.024;7.540;2023-07-29T09:00:35;22.00;99.90
15455;DHT22;21057;51.024;7.540;2023-07-29T09:03:02;21.80;99.90
15455;DHT22;21057;51.024;7.540;2023-07-29T09:05:34;22.10;99.90
15455;DHT22;21057;51.024;7.540;2023-07-29T09:08:02;21.90;99.90
15455;DHT22;21057;51.024;7.540;2023-07-29T09:10:29;21.70;99.90
15455;DHT22;21057;51.024;7.540;2023-07-29T09:12:56;21.80;99.90
15455;DHT22;21057;51.024;7.540;2023-07-29T09:15:27;22.10;99.90
15455;DHT22;21057;51.024;7.540;2023-07-29T09:17:56;22.00;99.90
15455;DHT22;21057;51.024;7.540;2023-07-29T09:20:24;22.10;99.90
15455;DHT22;21057;51.024;7.540;2023-07-29T09:22:54;22.50;99.90
15455;DHT22;21057;51.024;7.540;2023-07-29T09:25:24;22.70;99.90
15455;DHT22;21057;51.024;7.540;2023-07-29T09:27:51;22.60;99.90
15455;DHT22;21057;51.024;7.540;2023-07-29T09:30:18;22.60;99.90
15455;DHT22;21057;51.024;7.540;2023-07-29T09:32:45;22.50;99.90
15455;DHT22;21057;51.024;7.540;2023-07-29T09:35:12;22.30;99.90
15455;DHT22;21057;51.024;7.540;2023-07-29T09:37:39;22.40;99.90
15455;DHT22;21057;51.024;7.540;2023-07-29T09:40:13;22.40;99.90
15455;DHT22;21057;51.024;7.540;2023-07-29T09:42:47;22.70;99.90
15455;DHT22;21057;51.024;7.540;2023-07-29T09:45:20;22.70;99.90
15455;DHT22;21057;51.024;7.540;2023-07-29T09:47:47;22.60;99.90
15455;DHT22;21057;51.024;7.540;2023-07-29T09:50:14;22.60;99.90
15455;DHT22;21057;51.024;7.540;2023-07-29T09:52:41;22.70;99.90
15455;DHT22;21057;51.024;7.540;2023-07-29T09:55:12;22.90;99.90
15455;DHT22;21057;51.024;7.540;2023-07-29T09:57:40;23.10;99.90
15455;DHT22;21057;51.024;7.540;2023-07-29T10:00:09;22.70;99.90
15455;DHT22;21057;51.024;7.540;2023-07-29T10:02:38;22.60;99.90
15455;DHT22;21057;51.024;7.540;2023-07-29T10:05:06;22.70;99.90
15455;DHT22;21057;51.024;7.540;2023-07-29T10:07:35;22.60;99.90
15455;DHT22;21057;51.024;7.540;2023-07-29T10:10:04;22.40;99.90
15455;DHT22;21057;51.024;7.540;2023-07-29T10:12:34;22.40;99.90
15455;DHT22;21057;51.024;7.540;2023-07-29T10:15:04;22.40;99.90
15455;DHT22;21057;51.024;7.540;2023-07-29T10:17:34;22.30;99.90
15455;DHT22;21057;51.024;7.540;2023-07-29T10:20:01;22.10;99.90
15455;DHT22;21057;51.024;7.540;2023-07-29T10:22:36;22.20;99.90
15455;DHT22;21057;51.024;7.540;2023-07-29T10:25:04;21.90;99.90
15455;DHT22;21057;51.024;7.540;2023-07-29T10:27:41;22.00;99.90
15455;DHT22;21057;51.024;7.540;2023-07-29T10:30:11;22.10;99.90
15455;DHT22;21057;51.024;7.540;2023-07-29T10:32:38;22.20;99.90
15455;DHT22;21057;51.024;7.540;2023-07-29T10:35:06;22.00;99.90
15455;DHT22;21057;51.024;7.540;2023-07-29T10:37:33;22.10;99.90
15455;DHT22;21057;51.024;7.540;2023-07-29T10:40:00;22.10;99.90
15455;DHT22;21057;51.024;7.540;2023-07-29T10:42:27;22.10;99.90
15455;DHT22;21057;51.024;7.540;2023-07-29T10:44:55;22.10;99.90
15455;DHT22;21057;51.024;7.540;2023-07-29T10:47:23;22.30;99.90
15455;DHT22;21057;51.024;7.540;2023-07-29T10:49:52;22.60;99.90
15455;DHT22;21057;51.024;7.540;2023-07-29T10:52:40;23.10;99.90
15455;DHT22;21057;51.024;7.540;2023-07-29T10:55:24;23.70;99.90
15455;DHT22;21057;51.024;7.540;2023-07-29T10:57:51;23.90;99.90
15455;DHT22;21057;51.024;7.540;2023-07-29T11:00:20;23.70;99.90
15455;DHT22;21057;51.024;7.540;2023-07-29T11:02:58;24.10;99.90
15455;DHT22;21057;51.024;7.540;2023-07-29T11:05:26;24.10;99.90
15455;DHT22;21057;51.024;7.540;2023-07-29T11:07:53;23.80;99.90
15455;DHT22;21057;51.024;7.540;2023-07-29T11:10:21;23.50;99.90
15455;DHT22;21057;51.024;7.540;2023-07-29T11:12:48;23.20;99.90
15455;DHT22;21057;51.024;7.540;2023-07-29T11:15:23;23.40;99.90
15455;DHT22;21057;51.024;7.540;2023-07-29T11:17:51;23.60;99.90
15455;DHT22;21057;51.024;7.540;2023-07-29T11:20:20;23.40;99.90
15455;DHT22;21057;51.024;7.540;2023-07-29T11:22:48;23.40;99.90
15455;DHT22;21057;51.024;7.540;2023-07-29T11:25:16;23.20;99.90
15455;DHT22;21057;51.024;7.540;2023-07-29T11:27:44;23.00;99.90
15455;DHT22;21057;51.024;7.540;2023-07-29T11:30:12;22.70;99.90
15455;DHT22;21057;51.024;7.540;2023-07-29T11:32:42;22.10;99.90
15455;DHT22;21057;51.024;7.540;2023-07-29T11:35:11;22.00;99.90
15455;DHT22;21057;51.024;7.540;2023-07-29T11:37:39;21.80;99.90
15455;DHT22;21057;51.024;7.540;2023-07-29T11:40:07;21.60;99.90
15455;DHT22;21057;51.024;7.540;2023-07-29T11:42:36;21.40;99.90
15455;DHT22;21057;51.024;7.540;2023-07-29T11:45:04;21.70;99.90
15455;DHT22;21057;51.024;7.540;2023-07-29T11:47:32;22.30;99.90
15455;DHT22;21057;51.024;7.540;2023-07-29T11:50:04;22.80;99.90
15455;DHT22;21057;51.024;7.540;2023-07-29T11:52:32;23.20;99.90
15455;DHT22;21057;51.024;7.540;2023-07-29T11:55:00;23.10;99.90
15455;DHT22;21057;51.024;7.540;2023-07-29T11:57:28;23.10;99.90
15455;DHT22;21057;51.024;7.540;2023-07-29T11:59:55;22.80;99.90
15455;DHT22;21057;51.024;7.540;2023-07-29T12:02:23;22.70;99.90
15455;DHT22;21057;51.024;7.540;2023-07-29T12:04:51;22.60;99.90
15455;DHT22;21057;51.024;7.540;2023-07-29T12:07:19;22.40;99.90
15455;DHT22;21057;51.024;7.540;2023-07-29T12:09:47;22.70;99.90
15455;DHT22;21057;51.024;7.540;2023-07-29T12:12:15;23.30;99.90
15455;DHT22;21057;51.024;7.540;2023-07-29T12:14:44;23.40;99.90
15455;DHT22;21057;51.024;7.540;2023-07-29T12:17:12;23.20;99.90
15455;DHT22;21057;51.024;7.540;2023-07-29T12:19:39;22.60;99.90
15455;DHT22;21057;51.024;7.540;2023-07-29T12:22:09;22.40;99.90
15455;DHT22;21057;51.024;7.540;2023-07-29T12:24:39;22.60;99.90
15455;DHT22;21057;51.024;7.540;2023-07-29T12:27:10;22.80;99.90
15455;DHT22;21057;51.024;7.540;2023-07-29T12:29:40;23.10;99.90
15455;DHT22;21057;51.024;7.540;2023-07-29T12:32:08;23.90;99.90
15455;DHT22;21057;51.024;7.540;2023-07-29T12:34:37;24.90;99.90
15455;DHT22;21057;51.024;7.540;2023-07-29T12:37:05;25.30;99.90
15455;DHT22;21057;51.024;7.540;2023-07-29T12:39:33;25.70;99.90
15455;DHT22;21057;51.024;7.540;2023-07-29T12:42:03;26.00;99.90
15455;DHT22;21057;51.024;7.540;2023-07-29T12:44:31;26.40;99.90
15455;DHT22;21057;51.024;7.540;2023-07-29T12:47:00;26.60;99.90
15455;DHT22;21057;51.024;7.540;2023-07-29T12:49:27;27.10;99.90
15455;DHT22;21057;51.024;7.540;2023-07-29T12:51:55;27.40;99.90
15455;DHT22;21057;51.024;7.540;2023-07-29T12:54:21;27.60;99.90
15455;DHT22;21057;51.024;7.540;2023-07-29T12:56:48;27.20;99.90
15455;DHT22;21057;51.024;7.540;2023-07-29T12:59:17;26.60;99.90
15455;DHT22;21057;51.024;7.540;2023-07-29T13:01:43;27.00;99.90
15455;DHT22;21057;51.024;7.540;2023-07-29T13:04:10;26.70;99.90
15455;DHT22;21057;51.024;7.540;2023-07-29T13:06:37;26.50;99.90
15455;DHT22;21057;51.024;7.540;2023-07-29T13:09:04;26.60;99.90
15455;DHT22;21057;51.024;7.540;2023-07-29T13:11:32;26.90;99.90
15455;DHT22;21057;51.024;7.540;2023-07-29T13:13:59;27.70;99.90
15455;DHT22;21057;51.024;7.540;2023-07-29T13:16:27;27.50;99.90
15455;DHT22;21057;51.024;7.540;2023-07-29T13:18:54;27.80;99.90
15455;DHT22;21057;51.024;7.540;2023-07-29T13:21:21;27.50;99.90
15455;DHT22;21057;51.024;7.540;2023-07-29T13:23:48;27.60;99.90
15455;DHT22;21057;51.024;7.540;2023-07-29T13:26:15;27.40;99.90
15455;DHT22;21057;51.024;7.540;2023-07-29T13:28:42;27.00;99.90
15455;DHT22;21057;51.024;7.540;2023-07-29T13:31:09;26.80;99.90
15455;DHT22;21057;51.024;7.540;2023-07-29T13:33:37;27.00;99.90
15455;DHT22;21057;51.024;7.540;2023-07-29T13:36:04;27.20;99.90
15455;DHT22;21057;51.024;7.540;2023-07-29T13:38:31;27.00;99.90
15455;DHT22;21057;51.024;7.540;2023-07-29T13:40:58;26.90;99.90
15455;DHT22;21057;51.024;7.540;2023-07-29T13:43:25;26.70;99.90
15455;DHT22;21057;51.024;7.540;2023-07-29T13:45:52;26.50;99.90
15455;DHT22;21057;51.024;7.540;2023-07-29T13:48:19;26.20;99.90
15455;DHT22;21057;51.024;7.540;2023-07-29T13:50:47;26.00;99.90
15455;DHT22;21057;51.024;7.540;2023-07-29T13:53:14;25.50;99.90
15455;DHT22;21057;51.024;7.540;2023-07-29T13:55:40;25.20;99.90
15455;DHT22;21057;51.024;7.540;2023-07-29T13:58:07;25.00;99.90
15455;DHT22;21057;51.024;7.540;2023-07-29T14:00:34;24.90;99.90
15455;DHT22;21057;51.024;7.540;2023-07-29T14:03:01;25.00;99.90
15455;DHT22;21057;51.024;7.540;2023-07-29T14:05:28;24.70;99.90
15455;DHT22;21057;51.024;7.540;2023-07-29T14:07:56;24.20;99.90
15455;DHT22;21057;51.024;7.540;2023-07-29T14:10:23;24.20;99.90
15455;DHT22;21057;51.024;7.540;2023-07-29T14:12:50;24.10;99.90
15455;DHT22;21057;51.024;7.540;2023-07-29T14:15:17;24.10;99.90
15455;DHT22;21057;51.024;7.540;2023-07-29T14:17:44;23.90;99.90
15455;DHT22;21057;51.024;7.540;2023-07-29T14:20:11;23.70;99.90
15455;DHT22;21057;51.024;7.540;2023-07-29T14:22:38;23.60;99.90
15455;DHT22;21057;51.024;7.540;2023-07-29T14:25:07;23.50;99.90
15455;DHT22;21057;51.024;7.540;2023-07-29T14:27:34;23.50;99.90
15455;DHT22;21057;51.024;7.540;2023-07-29T14:30:01;23.30;99.90
15455;DHT22;21057;51.024;7.540;2023-07-29T14:32:28;23.20;99.90
15455;DHT22;21057;51.024;7.540;2023-07-29T14:34:56;23.10;99.90
15455;DHT22;21057;51.024;7.540;2023-07-29T14:37:22;23.20;99.90
15455;DHT22;21057;51.024;7.540;2023-07-29T14:39:49;23.30;99.90
15455;DHT22;21057;51.024;7.540;2023-07-29T14:42:17;23.70;99.90
15455;DHT22;21057;51.024;7.540;2023-07-29T14:44:44;24.10;99.90
15455;DHT22;21057;51.024;7.540;2023-07-29T14:47:11;24.30;99.90
15455;DHT22;21057;51.024;7.540;2023-07-29T14:49:38;24.30;99.90
15455;DHT22;21057;51.024;7.540;2023-07-29T14:52:06;24.50;99.90
15455;DHT22;21057;51.024;7.540;2023-07-29T14:54:33;24.50;99.90
15455;DHT22;21057;51.024;7.540;2023-07-29T14:56:59;24.50;99.90
15455;DHT22;21057;51.024;7.540;2023-07-29T14:59:28;24.30;99.90
15455;DHT22;21057;51.024;7.540;2023-07-29T15:01:54;24.30;99.90
15455;DHT22;21057;51.024;7.540;2023-07-29T15:04:21;24.30;99.90
15455;DHT22;21057;51.024;7.540;2023-07-29T15:06:48;24.30;99.90
15455;DHT22;21057;51.024;7.540;2023-07-29T15:09:15;24.20;99.90
15455;DHT22;21057;51.024;7.540;2023-07-29T15:11:41;24.80;99.90
15455;DHT22;21057;51.024;7.540;2023-07-29T15:14:08;25.20;99.90
15455;DHT22;21057;51.024;7.540;2023-07-29T15:16:36;25.30;99.90
15455;DHT22;21057;51.024;7.540;2023-07-29T15:19:04;25.10;99.90
15455;DHT22;21057;51.024;7.540;2023-07-29T15:21:31;24.90;99.90
15455;DHT22;21057;51.024;7.540;2023-07-29T15:23:59;24.30;99.90
15455;DHT22;21057;51.024;7.540;2023-07-29T15:26:26;24.00;99.90
15455;DHT22;21057;51.024;7.540;2023-07-29T15:28:53;24.00;99.90
15455;DHT22;21057;51.024;7.540;2023-07-29T15:31:20;23.50;99.90
15455;DHT22;21057;51.024;7.540;2023-07-29T15:33:49;23.60;99.90